메인 페이지
METAR-TAF:

METAR-TAF

공항 :

Benbecula, 스코틀랜드

위도: 57-28N, 경도: 007-22W, 고도: 6m

현재 날씨관측

예보는 56분 전, 13:50시(UTC)에 발표되었습니다.
남남동10kt남동풍과 풍을 오가는
온도 14°C
습도 67%
기압 1016 hPa
시정 10km 이상
고도 2000ft 상공 구름 보통
고도 4000ft 상공 구름 많음

METAR: EGPL 201350Z 16010KT 130V190 9999 SCT020 BKN040 14/08 Q1016

시각: 15:46 (14:46 UTC)

예보

예보는 49분 전, 13:57시(UTC)에 발표되었습니다.
예보 대상 시간: 20일 15시부터 20일 17시까지 (UTC)
9kt
시정 10km 이상
고도 2000ft 상공 구름 보통
일시적
20일 15시부터 20일 17시까지 (UTC)
시정: 4000m
고도 500ft 상공 구름 많음
비, 이슬비,

TAF: EGPL 201357Z 2015/2017 18009KT 9999 SCT020 TEMPO 2015/2017 4000 RADZ BKN005

4,000개 이상의 공항 관측 자료 및 예보 (METAR 및 TAF 보고).

지도상에서 검색 가능한 기상관측소가 노란 점과 빨간 점으로 표시되어 있습니다.

기상관측소 명을 보려면 표시 위로 마우스를 이동하세요.

날씨 관측과 예보를 보려면 클릭하세요.

지도 변경 : 확대하려면 엑스 표시가 있는 녹색 버튼, 축소하려면 빼기 표시가 있는 녹색 버튼, 다음 페이지의 지도를 보려면 녹색 화살표를 클릭하세요.


METAR-TAF: